Flight Track Log - Related Links

Times and Time Zones

All times are in EST time to prevent confusion due to time zone crossing. See the PDT4226 flight status page for this flight to view local times or setup timezone preferences in your user account.


Time Position Orientation Groundspeed Altitude Reporting Facility
EST Latitude Longitude Course Direction KTS MPH feet Rate Location/Type
Mon 11:50:57 AM 39.9000 -75.2333 349° North 123 142 700  Level Philadelphia TRACON
Mon 11:51:27 AM 39.9167 -75.2500 323° Northwest 112 129 1,400 1,200 Climbing Philadelphia TRACON
Mon 11:52:27 AM 39.9500 -75.2500 360° North 127 146 2,500 900 Climbing Philadelphia TRACON
Mon 11:53:27 AM 39.9833 -75.2667 339° North 167 192 3,200 750 Climbing Philadelphia TRACON
Mon 11:54:27 AM 40.0333 -75.2667 360° North 179 206 4,000 421 Climbing Philadelphia TRACON
Mon 11:55:21 AM 40.0833 -75.2667 360° North 226 260 4,000  Level Philadelphia TRACON
Mon 11:56:00 AM 40.2098 -75.3200 349° North  Level FlightAware Approximate
Mon 11:57:00 AM 40.1780 -75.2974 349° North  Level Estimated
Mon 12:04:00 PM 40.5798 -75.4290 349° North  Level Estimated
Mon 12:05:00 PM 40.6385 -75.4380 353° North  Level FlightAware Approximate
Mon 12:06:00 PM 40.6973 -75.4470 353° North  Level FlightAware Approximate
Mon 12:07:00 PM 40.7545 -75.4667 North  Level Estimated
Mon 12:08:00 PM 40.8133 -75.4580 North  Level FlightAware Approximate
Mon 12:09:00 PM 40.8703 -75.4788 North  Level Estimated
Mon 12:10:00 PM 40.9283 -75.4640 11° North  Level FlightAware Approximate
Mon 12:11:00 PM 40.9850 -75.4864 North  Level Estimated
Mon 12:12:00 PM 41.0417 -75.5088 357° North  Level Estimated
Mon 12:13:00 PM 41.1002 -75.4970 North  Level FlightAware Approximate
Mon 12:14:00 PM 41.1586 -75.4852 North  Level FlightAware Approximate
Mon 12:15:00 PM 41.2171 -75.4734 North  Level FlightAware Approximate
Mon 12:16:00 PM 41.2724 -75.5012 North  Level Estimated
Mon 12:17:00 PM 41.3310 -75.4908 North  Level FlightAware Approximate
Mon 12:18:00 PM 41.3897 -75.4804 North  Level FlightAware Approximate
Mon 12:19:00 PM 41.4436 -75.5128 323° Northwest  Level Estimated
Mon 12:20:00 PM 41.4955 -75.5506 331° Northwest  Level FlightAware Approximate
Mon 12:21:00 PM 41.5474 -75.5884 331° Northwest  Level FlightAware Approximate
Mon 12:22:00 PM 41.5993 -75.6263 331° Northwest  Level FlightAware Approximate
Mon 12:23:00 PM 41.6512 -75.6643 331° Northwest  Level FlightAware Approximate
Mon 12:24:00 PM 41.7058 -75.6949 326° Northwest  Level Estimated
Mon 12:25:00 PM 41.7537 -75.7414 324° Northwest  Level FlightAware Approximate
Mon 12:26:00 PM 41.8015 -75.7880 324° Northwest  Level FlightAware Approximate
Mon 12:27:00 PM 41.8494 -75.8346 324° Northwest  Level FlightAware Approximate
Mon 12:28:00 PM 41.8972 -75.8813 324° Northwest  Level FlightAware Approximate
Mon 12:29:00 PM 41.9548 -75.8995 323° Northwest  Level Estimated
Mon 12:30:00 PM 42.0124 -75.9176 323° Northwest  Level Estimated
Mon 12:31:00 PM 42.0467 -75.9824 306° West  Level FlightAware Approximate
Mon 12:32:00 PM 42.1059 -75.9814 323° Northwest  Level Estimated
Mon 12:33:00 PM 42.1650 -75.9804 90° East  Level Estimated
Mon 12:34:00 PM 42.2084 -75.9796 62° Northeast  Level Estimated
Mon 12:35:00 PM 42.2084 -75.9796 90° East  Level Estimated
Mon 12:36:00 PM 42.2084 -75.9796 90° East  Level Estimated
Mon 12:37:00 PM 42.2084 -75.9796 90° East  Level Estimated

Login

Don't have an account? Register now (free) for customized features, flight alerts, and more!